createdAt,value
2022-09-13T00:02:37.396Z,77.81
2022-09-13T00:07:40.087Z,77.74
2022-09-13T00:12:42.958Z,77.86
2022-09-13T00:17:46.885Z,77.78
2022-09-13T00:22:49.585Z,77.61
2022-09-13T00:27:52.219Z,77.80
2022-09-13T00:32:56.459Z,77.84
2022-09-13T00:38:00.943Z,77.89
2022-09-13T00:43:03.790Z,77.96
2022-09-13T00:48:09.273Z,77.73
2022-09-13T00:53:14.127Z,77.89
2022-09-13T00:58:19.420Z,78.02
2022-09-13T01:03:25.270Z,78.04
2022-09-13T01:08:29.308Z,78.00
2022-09-13T01:13:33.562Z,77.90
2022-09-13T01:18:37.702Z,77.57
2022-09-13T01:24:08.260Z,77.73
2022-09-13T01:29:35.985Z,77.70
2022-09-13T01:34:50.023Z,77.74
2022-09-13T01:40:03.541Z,77.78
2022-09-13T01:45:15.409Z,77.77
2022-09-13T01:50:23.895Z,77.45
2022-09-13T01:55:32.211Z,77.49
2022-09-13T02:00:38.391Z,77.46
2022-09-13T02:05:45.781Z,77.25
2022-09-13T02:10:50.885Z,77.38
2022-09-13T02:15:58.188Z,77.47
2022-09-13T02:21:05.527Z,77.27
2022-09-13T02:26:09.100Z,77.49
2022-09-13T02:31:13.381Z,77.30
2022-09-13T02:36:21.113Z,77.53
2022-09-13T02:41:28.135Z,77.58
2022-09-13T02:46:48.263Z,77.60
2022-09-13T02:51:57.231Z,77.50
2022-09-13T02:57:02.913Z,77.50
2022-09-13T03:02:07.808Z,77.70
2022-09-13T03:07:13.691Z,77.87
2022-09-13T03:12:35.055Z,77.79
2022-09-13T03:17:46.841Z,77.74
2022-09-13T03:23:14.204Z,77.82
2022-09-13T03:28:23.270Z,77.97
2022-09-13T03:33:30.345Z,77.84
2022-09-13T03:38:38.827Z,77.99
2022-09-13T03:43:45.411Z,78.26
2022-09-13T03:48:48.650Z,78.24
2022-09-13T03:53:57.365Z,78.23
2022-09-13T03:58:59.941Z,78.28
2022-09-13T04:04:02.748Z,78.21
2022-09-13T04:09:06.704Z,78.38
2022-09-13T04:14:09.841Z,78.16
2022-09-13T04:19:12.414Z,78.31
2022-09-13T04:24:16.692Z,78.41
2022-09-13T04:29:19.344Z,78.35
2022-09-13T04:34:23.187Z,78.33
2022-09-13T04:39:27.200Z,78.26
2022-09-13T04:44:29.801Z,78.49
2022-09-13T04:49:32.401Z,78.25
2022-09-13T04:54:36.357Z,78.58
2022-09-13T04:59:38.926Z,78.64
2022-09-13T05:04:41.472Z,78.44
2022-09-13T05:09:45.408Z,78.37
2022-09-13T05:14:48.018Z,78.26
2022-09-13T05:19:50.767Z,78.06
2022-09-13T05:24:54.737Z,78.00
2022-09-13T05:29:57.418Z,77.88
2022-09-13T05:35:00.032Z,77.96
2022-09-13T05:40:12.491Z,77.89
2022-09-13T05:45:15.496Z,77.87
2022-09-13T05:50:44.810Z,77.79
2022-09-13T05:55:42.182Z,77.62
2022-09-13T06:00:44.859Z,77.20
2022-09-13T06:05:47.711Z,77.14
2022-09-13T06:10:57.119Z,77.02
2022-09-13T06:16:01.600Z,76.40
2022-09-13T06:21:06.451Z,76.34
2022-09-13T06:26:12.665Z,76.52
2022-09-13T06:31:16.780Z,76.39
2022-09-13T06:36:20.559Z,76.37
2022-09-13T06:41:27.129Z,76.43
2022-09-13T06:46:31.261Z,77.03
2022-09-13T06:51:34.699Z,77.58
2022-09-13T06:56:39.269Z,77.76
2022-09-13T07:01:44.598Z,77.95
2022-09-13T07:06:48.925Z,78.16
2022-09-13T07:11:55.128Z,78.04
2022-09-13T07:16:57.812Z,78.11
2022-09-13T07:22:00.949Z,78.21
2022-09-13T07:27:05.009Z,78.49
2022-09-13T07:32:07.788Z,78.73
2022-09-13T07:37:10.504Z,78.91
2022-09-13T07:42:14.503Z,79.20
2022-09-13T07:47:17.108Z,78.94
2022-09-13T07:52:19.810Z,78.91
2022-09-13T07:57:23.755Z,78.45
2022-09-13T08:02:26.894Z,78.40
2022-09-13T08:07:29.517Z,78.63
2022-09-13T08:12:33.489Z,78.81
2022-09-13T08:17:36.144Z,78.44
2022-09-13T08:22:38.744Z,78.26
2022-09-13T08:27:42.825Z,78.72
2022-09-13T08:32:45.562Z,78.86
2022-09-13T08:37:48.343Z,78.75
2022-09-13T08:42:55.493Z,78.36
2022-09-13T08:48:00.154Z,77.87
2022-09-13T08:53:16.611Z,77.93
2022-09-13T08:58:39.902Z,78.10
2022-09-13T09:03:44.957Z,77.91
2022-09-13T09:08:50.049Z,77.87
2022-09-13T09:13:59.364Z,77.71
2022-09-13T09:19:08.367Z,77.46
2022-09-13T09:24:12.700Z,77.18
2022-09-13T09:29:24.338Z,76.90
2022-09-13T09:34:42.482Z,76.59
2022-09-13T09:39:45.401Z,76.31
2022-09-13T09:44:52.069Z,75.96
2022-09-13T09:50:09.900Z,75.71
2022-09-13T09:55:21.046Z,75.60
2022-09-13T10:00:27.208Z,75.12
2022-09-13T10:05:30.248Z,75.38
2022-09-13T10:10:37.753Z,74.61
2022-09-13T10:15:54.014Z,73.56
2022-09-13T10:21:06.792Z,72.92
2022-09-13T10:26:12.171Z,72.54
2022-09-13T10:31:17.820Z,71.06
2022-09-13T10:36:48.125Z,71.22
2022-09-13T10:41:51.307Z,70.41
2022-09-13T10:46:55.754Z,69.50
2022-09-13T10:51:58.352Z,70.12
2022-09-13T10:57:30.580Z,70.05
2022-09-13T11:02:47.877Z,70.08
2022-09-13T11:08:21.320Z,69.74
2022-09-13T11:13:32.983Z,69.60
2022-09-13T11:18:51.797Z,69.66
2022-09-13T11:24:34.376Z,66.92
2022-09-13T11:29:52.968Z,65.00
2022-09-13T11:35:13.209Z,61.51
2022-09-13T11:40:30.804Z,58.29
2022-09-13T11:45:36.000Z,61.51
2022-09-13T11:50:45.964Z,60.95
2022-09-13T11:55:51.081Z,61.87
2022-09-13T12:00:56.786Z,62.04
2022-09-13T12:06:02.893Z,64.13
2022-09-13T12:11:14.055Z,63.07
2022-09-13T12:16:24.929Z,60.81
2022-09-13T12:21:33.262Z,63.63
2022-09-13T12:26:38.757Z,64.01
2022-09-13T12:31:41.773Z,65.03
2022-09-13T12:36:57.529Z,65.49
2022-09-13T12:42:32.817Z,65.14
2022-09-13T12:47:58.659Z,64.70
2022-09-13T12:53:10.885Z,64.66
2022-09-13T12:58:28.766Z,64.51
2022-09-13T13:03:33.812Z,64.62
2022-09-13T13:08:38.051Z,64.87
2022-09-13T13:13:42.496Z,65.12
2022-09-13T13:18:48.451Z,64.93
2022-09-13T13:24:24.571Z,63.37
2022-09-13T13:29:30.113Z,59.80
2022-09-13T13:34:39.816Z,60.23
2022-09-13T13:39:43.421Z,60.48
2022-09-13T13:45:16.114Z,60.27
2022-09-13T13:50:20.129Z,59.92
2022-09-13T13:55:47.026Z,60.43
2022-09-13T14:00:52.868Z,60.92
2022-09-13T14:05:59.939Z,60.90
2022-09-13T14:11:11.045Z,60.85
2022-09-13T14:16:24.913Z,60.49
2022-09-13T14:21:32.002Z,59.38
2022-09-13T14:26:34.730Z,58.83
2022-09-13T14:31:39.186Z,59.32
2022-09-13T14:36:52.379Z,58.85
2022-09-13T14:42:02.410Z,57.37
2022-09-13T14:47:13.330Z,57.62
2022-09-13T14:52:20.252Z,57.97
2022-09-13T14:57:26.410Z,58.56
2022-09-13T15:02:33.590Z,59.65
2022-09-13T15:07:37.750Z,60.18
2022-09-13T15:12:52.320Z,60.56
2022-09-13T15:17:58.411Z,60.82
2022-09-13T15:23:01.064Z,60.96
2022-09-13T15:28:03.662Z,60.97
2022-09-13T15:33:18.715Z,61.02
2022-09-13T15:38:27.098Z,60.97
2022-09-13T15:43:30.885Z,60.35
2022-09-13T15:48:36.185Z,60.29
2022-09-13T15:53:40.039Z,60.55
2022-09-13T15:58:42.846Z,61.20
2022-09-13T16:03:46.893Z,61.41
2022-09-13T16:08:49.607Z,61.45
2022-09-13T16:13:52.195Z,61.70
2022-09-13T16:18:56.198Z,62.05
2022-09-13T16:23:59.233Z,62.19
2022-09-13T16:29:01.914Z,61.80
2022-09-13T16:34:06.492Z,62.35
2022-09-13T16:39:09.243Z,62.80
2022-09-13T16:44:11.881Z,63.21
2022-09-13T16:49:16.025Z,63.80
2022-09-13T16:54:18.695Z,64.12
2022-09-13T16:59:21.411Z,64.46
2022-09-13T17:04:25.605Z,64.84
2022-09-13T17:09:28.519Z,65.18
2022-09-13T17:14:31.301Z,65.64
2022-09-13T17:19:35.661Z,66.24
2022-09-13T17:24:38.937Z,66.50
2022-09-13T17:29:41.621Z,66.57
2022-09-13T17:34:45.803Z,66.85
2022-09-13T17:39:48.614Z,67.36
2022-09-13T17:44:51.354Z,67.80
2022-09-13T17:49:56.057Z,67.87
2022-09-13T17:54:58.676Z,68.74
2022-09-13T18:00:01.722Z,68.66
2022-09-13T18:05:13.382Z,69.31
2022-09-13T18:10:42.592Z,69.88
2022-09-13T18:15:39.950Z,70.21
2022-09-13T18:20:47.286Z,70.04
2022-09-13T18:26:02.554Z,70.64
2022-09-13T18:31:09.096Z,71.41
2022-09-13T18:36:14.534Z,71.85
2022-09-13T18:41:18.641Z,72.11
2022-09-13T18:46:24.654Z,71.98
2022-09-13T18:51:30.781Z,72.21
2022-09-13T18:56:33.742Z,72.51
2022-09-13T19:01:38.165Z,72.95
2022-09-13T19:06:43.468Z,73.08
2022-09-13T19:11:48.376Z,73.74
2022-09-13T19:16:52.558Z,73.86
2022-09-13T19:21:56.545Z,74.17
2022-09-13T19:26:59.217Z,74.54
2022-09-13T19:32:02.210Z,75.11
2022-09-13T19:37:06.194Z,74.98
2022-09-13T19:42:09.068Z,75.10
2022-09-13T19:52:35.858Z,75.45
2022-09-13T19:57:41.925Z,75.71
2022-09-13T20:02:49.332Z,75.91
2022-09-13T20:07:53.305Z,75.95
2022-09-13T20:12:55.966Z,75.85
2022-09-13T20:17:58.966Z,75.91
2022-09-13T20:23:02.900Z,76.07
2022-09-13T20:28:05.628Z,76.22
2022-09-13T20:33:08.281Z,76.30
2022-09-13T20:38:12.297Z,76.47
2022-09-13T20:43:15.789Z,76.50
2022-09-13T20:48:19.690Z,76.63
2022-09-13T20:53:23.646Z,76.69
2022-09-13T20:58:26.292Z,76.61
2022-09-13T21:03:28.944Z,76.91
2022-09-13T21:08:42.434Z,76.90
2022-09-13T21:13:47.732Z,76.82
2022-09-13T21:18:50.872Z,76.97
2022-09-13T21:23:56.597Z,77.38
2022-09-13T21:29:00.008Z,77.48
2022-09-13T21:34:04.190Z,77.64
2022-09-13T21:39:08.846Z,77.82
2022-09-13T21:44:11.718Z,77.69
2022-09-13T21:49:14.390Z,77.86
2022-09-13T21:54:20.404Z,77.90
2022-09-13T21:59:23.973Z,77.94
2022-09-13T22:04:27.532Z,78.09
2022-09-13T22:09:31.716Z,78.16
2022-09-13T22:14:34.312Z,78.21
2022-09-13T22:19:36.933Z,78.42
2022-09-13T22:24:40.908Z,78.57
2022-09-13T22:29:43.773Z,78.52
2022-09-13T22:34:46.814Z,78.79
2022-09-13T22:39:50.911Z,79.16
2022-09-13T22:44:53.501Z,79.36
2022-09-13T22:49:56.075Z,79.49
2022-09-13T22:55:00.008Z,79.79
2022-09-13T23:00:03.114Z,79.88
2022-09-13T23:05:06.045Z,80.07
2022-09-13T23:10:10.860Z,80.37
2022-09-13T23:15:13.612Z,80.52
2022-09-13T23:20:16.392Z,80.70
2022-09-13T23:25:20.580Z,80.96
2022-09-13T23:30:23.524Z,80.98
2022-09-13T23:35:26.369Z,81.35
2022-09-13T23:40:31.781Z,81.34
2022-09-13T23:45:34.656Z,81.56
2022-09-13T23:50:37.404Z,81.52
2022-09-13T23:55:41.522Z,81.81
